createdAt,value
2022-11-08T00:01:43.203Z,13.98
2022-11-08T00:04:11.514Z,15.63
2022-11-08T00:06:57.314Z,13.52
2022-11-08T00:09:42.681Z,14.38
2022-11-08T00:12:28.189Z,12.35
2022-11-08T00:14:55.054Z,14.77
2022-11-08T00:17:22.334Z,14.23
2022-11-08T00:19:48.996Z,16.58
2022-11-08T00:22:15.611Z,14.98
2022-11-08T00:24:42.202Z,16.65
2022-11-08T00:27:19.446Z,16.42
2022-11-08T00:29:46.108Z,19.40
2022-11-08T00:32:17.234Z,17.40
2022-11-08T00:34:44.149Z,16.02
2022-11-08T00:37:10.799Z,15.30
2022-11-08T00:39:37.545Z,17.02
2022-11-08T00:42:04.263Z,16.35
2022-11-08T00:44:30.901Z,15.23
2022-11-08T00:46:57.536Z,15.70
2022-11-08T00:49:24.208Z,15.55
2022-11-08T00:51:50.890Z,14.77
2022-11-08T00:54:19.308Z,15.00
2022-11-08T00:56:46.221Z,13.98
2022-11-08T00:59:13.949Z,14.35
2022-11-08T01:01:40.917Z,13.55
2022-11-08T01:04:08.198Z,14.00
2022-11-08T01:06:34.785Z,14.52
2022-11-08T01:09:01.776Z,13.57
2022-11-08T01:11:28.550Z,13.45
2022-11-08T01:13:59.094Z,13.95
2022-11-08T01:16:27.145Z,14.80
2022-11-08T01:18:54.525Z,15.10
2022-11-08T01:21:21.342Z,14.20
2022-11-08T01:23:48.055Z,14.20
2022-11-08T01:26:16.420Z,14.82
2022-11-08T01:28:43.237Z,15.07
2022-11-08T01:31:14.769Z,14.63
2022-11-08T01:33:42.948Z,13.63
2022-11-08T01:36:13.493Z,14.95
2022-11-08T01:38:40.325Z,13.82
2022-11-08T01:41:07.133Z,15.15
2022-11-08T01:43:40.713Z,14.70
2022-11-08T01:46:23.544Z,14.25
2022-11-08T01:49:08.440Z,14.85
2022-11-08T01:51:41.020Z,15.25
2022-11-08T01:54:09.353Z,15.30
2022-11-08T01:56:36.365Z,14.50
2022-11-08T01:59:03.069Z,15.50
2022-11-08T02:01:30.005Z,14.77
2022-11-08T02:03:56.951Z,13.98
2022-11-08T02:06:23.561Z,14.20
2022-11-08T02:08:50.261Z,12.55
2022-11-08T02:11:16.924Z,14.77
2022-11-08T02:13:43.541Z,14.32
2022-11-08T02:16:14.455Z,14.77
2022-11-08T02:18:44.320Z,15.10
2022-11-08T02:21:31.829Z,13.88
2022-11-08T02:24:02.769Z,14.07
2022-11-08T02:26:31.395Z,14.07
2022-11-08T02:28:58.127Z,13.65
2022-11-08T02:31:24.829Z,13.75
2022-11-08T02:33:51.437Z,13.95
2022-11-08T02:36:22.787Z,14.18
2022-11-08T02:38:54.162Z,14.48
2022-11-08T02:41:20.958Z,14.07
2022-11-08T02:43:47.620Z,15.35
2022-11-08T02:46:14.201Z,14.27
2022-11-08T02:48:40.895Z,13.45
2022-11-08T02:51:07.534Z,13.38
2022-11-08T02:53:34.154Z,14.35
2022-11-08T02:56:00.803Z,13.82
2022-11-08T02:58:28.032Z,13.63
2022-11-08T03:00:54.852Z,14.13
2022-11-08T03:03:21.521Z,14.75
2022-11-08T03:05:48.227Z,14.50
2022-11-08T03:08:15.303Z,15.63
2022-11-08T03:10:42.271Z,15.30
2022-11-08T03:13:09.003Z,14.70
2022-11-08T03:15:35.700Z,14.38
2022-11-08T03:18:02.638Z,14.25
2022-11-08T03:20:32.871Z,15.00
2022-11-08T03:23:01.386Z,14.68
2022-11-08T03:25:28.061Z,14.55
2022-11-08T03:27:54.751Z,13.95
2022-11-08T03:30:21.599Z,13.65
2022-11-08T03:32:49.813Z,14.00
2022-11-08T03:35:16.614Z,13.63
2022-11-08T03:37:52.573Z,13.68
2022-11-08T03:40:19.307Z,14.25
2022-11-08T03:42:46.116Z,14.48
2022-11-08T03:45:12.935Z,14.95
2022-11-08T03:47:42.992Z,16.33
2022-11-08T03:50:10.068Z,16.35
2022-11-08T03:52:45.630Z,17.52
2022-11-08T03:55:12.317Z,15.43
2022-11-08T03:57:42.107Z,15.18
2022-11-08T04:00:10.846Z,13.90
2022-11-08T04:02:37.583Z,13.30
2022-11-08T04:05:04.874Z,15.15
2022-11-08T04:07:31.590Z,13.98
2022-11-08T04:09:58.242Z,14.25
2022-11-08T04:12:43.286Z,15.02
2022-11-08T04:15:15.452Z,15.48
2022-11-08T04:18:08.161Z,14.52
2022-11-08T04:20:59.538Z,14.70
2022-11-08T04:23:26.263Z,14.13
2022-11-08T04:25:57.157Z,13.82
2022-11-08T04:28:27.770Z,13.80
2022-11-08T04:30:55.407Z,13.85
2022-11-08T04:33:22.058Z,14.73
2022-11-08T04:35:48.895Z,13.98
2022-11-08T04:38:15.903Z,14.43
2022-11-08T04:40:42.774Z,14.55
2022-11-08T04:43:09.419Z,15.00
2022-11-08T04:45:36.031Z,13.45
2022-11-08T04:48:02.697Z,14.68
2022-11-08T04:50:29.285Z,21.13
2022-11-08T04:52:56.073Z,18.65
2022-11-08T04:55:22.966Z,17.80
2022-11-08T04:57:49.903Z,17.13
2022-11-08T05:00:16.985Z,16.73
2022-11-08T05:02:43.801Z,16.40
2022-11-08T05:05:10.587Z,14.57
2022-11-08T05:07:37.240Z,14.98
2022-11-08T05:10:04.146Z,15.55
2022-11-08T05:12:30.863Z,15.60
2022-11-08T05:14:57.531Z,15.18
2022-11-08T05:17:24.164Z,14.95
2022-11-08T05:20:09.465Z,17.70
2022-11-08T05:22:54.833Z,15.23
2022-11-08T05:25:21.566Z,18.60
2022-11-08T05:27:48.196Z,18.98
2022-11-08T05:30:14.795Z,17.35
2022-11-08T05:32:41.582Z,16.67
2022-11-08T05:35:08.254Z,15.57
2022-11-08T05:37:34.879Z,16.08
2022-11-08T05:40:01.546Z,16.73
2022-11-08T05:42:28.678Z,18.75
2022-11-08T05:44:55.335Z,16.48
2022-11-08T05:47:22.023Z,14.80
2022-11-08T05:49:48.687Z,14.90
2022-11-08T05:52:15.252Z,14.48
2022-11-08T05:54:41.931Z,14.05
2022-11-08T05:57:08.587Z,13.35
2022-11-08T05:59:35.200Z,13.93
2022-11-08T06:02:01.908Z,13.80
2022-11-08T06:04:28.596Z,15.70
2022-11-08T06:06:55.203Z,16.13
2022-11-08T06:09:21.945Z,13.90
2022-11-08T06:11:48.597Z,15.55
2022-11-08T06:14:15.194Z,15.73
2022-11-08T06:16:41.894Z,16.02
2022-11-08T06:19:08.507Z,15.13
2022-11-08T06:21:35.167Z,16.40
2022-11-08T06:24:01.759Z,18.55
2022-11-08T06:26:28.555Z,19.10
2022-11-08T06:28:55.155Z,22.85
2022-11-08T06:31:21.831Z,18.52
2022-11-08T06:33:48.559Z,19.73
2022-11-08T06:36:15.320Z,25.20
2022-11-08T06:38:41.951Z,21.58
2022-11-08T06:41:09.453Z,19.95
2022-11-08T06:43:36.161Z,19.77
2022-11-08T06:46:02.892Z,19.15
2022-11-08T06:48:35.097Z,19.27
2022-11-08T06:51:02.740Z,19.95
2022-11-08T06:53:29.902Z,27.65
2022-11-08T06:55:56.505Z,19.02
2022-11-08T06:58:23.082Z,17.50
2022-11-08T07:00:49.745Z,17.90
2022-11-08T07:03:16.676Z,17.85
2022-11-08T07:05:43.563Z,17.25
2022-11-08T07:08:10.203Z,16.02
2022-11-08T07:10:37.614Z,16.13
2022-11-08T07:13:10.423Z,18.42
2022-11-08T07:15:37.437Z,18.02
2022-11-08T07:18:05.815Z,17.02
2022-11-08T07:20:32.653Z,16.13
2022-11-08T07:22:59.594Z,15.25
2022-11-08T07:25:26.540Z,16.20
2022-11-08T07:27:57.278Z,14.63
2022-11-08T07:30:24.016Z,13.68
2022-11-08T07:32:51.137Z,15.18
2022-11-08T07:35:18.789Z,16.65
2022-11-08T07:37:45.574Z,17.23
2022-11-08T07:40:12.765Z,17.85
2022-11-08T07:43:05.163Z,16.27
2022-11-08T07:45:26.699Z,16.67
2022-11-08T07:48:11.473Z,16.50
2022-11-08T07:50:39.043Z,15.52
2022-11-08T07:53:05.893Z,15.55
2022-11-08T07:55:32.523Z,16.23
2022-11-08T07:58:02.507Z,12.63
2022-11-08T08:00:30.102Z,13.90
2022-11-08T08:03:00.197Z,14.35
2022-11-08T08:05:28.005Z,15.18
2022-11-08T08:07:58.624Z,13.63
2022-11-08T08:10:25.599Z,13.50
2022-11-08T08:12:52.207Z,13.15
2022-11-08T08:15:18.853Z,13.65
2022-11-08T08:17:45.486Z,13.10
2022-11-08T08:20:12.324Z,13.95
2022-11-08T08:22:45.990Z,14.63
2022-11-08T08:25:12.896Z,15.38
2022-11-08T08:27:39.529Z,16.23
2022-11-08T08:30:07.013Z,15.77
2022-11-08T08:32:34.384Z,16.17
2022-11-08T08:35:01.123Z,17.48
2022-11-08T08:37:27.815Z,18.23
2022-11-08T08:39:54.447Z,16.27
2022-11-08T08:42:21.113Z,17.08
2022-11-08T08:44:47.823Z,15.57
2022-11-08T08:47:14.445Z,17.60
2022-11-08T08:49:41.276Z,17.00
2022-11-08T08:52:07.952Z,16.92
2022-11-08T08:54:34.530Z,16.10
2022-11-08T08:57:01.291Z,17.80
2022-11-08T09:02:17.582Z,16.52
2022-11-08T09:04:44.235Z,17.20
2022-11-08T09:07:10.934Z,15.18
2022-11-08T09:09:37.703Z,18.23
2022-11-08T09:12:04.525Z,18.80
2022-11-08T09:14:31.383Z,17.70
2022-11-08T09:16:58.098Z,16.52
2022-11-08T09:19:24.827Z,16.63
2022-11-08T09:21:51.624Z,16.85
2022-11-08T09:24:18.304Z,15.45
2022-11-08T09:26:44.991Z,15.80
2022-11-08T09:29:11.741Z,15.93
2022-11-08T09:31:38.403Z,15.77
2022-11-08T09:34:04.980Z,18.85
2022-11-08T09:36:31.658Z,48.70
2022-11-08T09:38:58.429Z,18.13
2022-11-08T09:41:25.016Z,16.80
2022-11-08T09:43:58.680Z,728.00
2022-11-08T09:46:50.646Z,726.05
2022-11-08T09:49:20.458Z,401.27
2022-11-08T09:51:47.801Z,176.38
2022-11-08T09:54:19.970Z,435.27
2022-11-08T09:56:46.618Z,482.05
2022-11-08T09:59:31.697Z,185.73
2022-11-08T10:01:58.409Z,314.98
2022-11-08T10:04:26.642Z,78.65
2022-11-08T10:07:05.087Z,72.65
2022-11-08T10:09:54.689Z,233.77
2022-11-08T10:12:22.954Z,240.73
2022-11-08T10:15:10.906Z,113.30
2022-11-08T10:17:49.287Z,170.70
2022-11-08T10:20:35.450Z,702.25
2022-11-08T10:23:26.471Z,303.65
2022-11-08T10:25:59.738Z,227.70
2022-11-08T10:28:47.548Z,71.38
2022-11-08T10:31:14.245Z,203.90
2022-11-08T10:33:44.522Z,78.63
2022-11-08T10:36:20.485Z,323.38
2022-11-08T10:39:04.124Z,196.73
2022-11-08T10:41:48.929Z,64.25
2022-11-08T10:44:21.119Z,41.40
2022-11-08T10:47:12.168Z,73.68
2022-11-08T10:49:40.348Z,38.92
2022-11-08T10:52:44.267Z,22.55
2022-11-08T10:55:31.111Z,20.98
2022-11-08T10:57:57.819Z,35.78
2022-11-08T11:00:29.839Z,29.13
2022-11-08T11:03:22.444Z,38.30
2022-11-08T11:05:59.890Z,29.63
2022-11-08T11:08:26.519Z,24.38
2022-11-08T11:10:53.164Z,20.75
2022-11-08T11:13:21.548Z,18.67
2022-11-08T11:15:52.531Z,48.60
2022-11-08T11:18:21.906Z,21.65
2022-11-08T11:21:19.397Z,23.77
2022-11-08T11:23:46.722Z,18.15
2022-11-08T11:26:34.317Z,40.83
2022-11-08T11:29:06.987Z,23.13
2022-11-08T11:31:35.423Z,16.33
2022-11-08T11:34:17.360Z,19.90
2022-11-08T11:36:55.515Z,14.90
2022-11-08T11:39:28.609Z,35.30
2022-11-08T11:42:24.087Z,59.38
2022-11-08T11:45:13.088Z,16.83
2022-11-08T11:47:46.944Z,14.57
2022-11-08T11:50:34.614Z,13.23
2022-11-08T11:53:05.973Z,12.30
2022-11-08T11:55:57.247Z,14.27
2022-11-08T11:58:33.310Z,14.82
2022-11-08T12:01:14.483Z,12.73
2022-11-08T12:03:53.574Z,13.82
2022-11-08T12:06:31.393Z,14.00
2022-11-08T12:09:00.950Z,14.07
2022-11-08T12:11:36.270Z,13.60
2022-11-08T12:14:21.620Z,17.00
2022-11-08T12:16:57.385Z,17.13
2022-11-08T12:19:32.842Z,23.40
2022-11-08T12:22:19.501Z,13.02
2022-11-08T12:25:07.711Z,13.23
2022-11-08T12:27:53.659Z,32.95
2022-11-08T12:30:31.968Z,23.92
2022-11-08T12:33:20.995Z,14.13
2022-11-08T12:35:59.946Z,15.38
2022-11-08T12:39:01.657Z,13.80
2022-11-08T12:41:33.081Z,16.08
2022-11-08T12:44:16.994Z,30.20
2022-11-08T12:46:58.636Z,20.92
2022-11-08T12:49:33.824Z,16.13
2022-11-08T12:52:29.598Z,18.63
2022-11-08T12:55:00.784Z,18.38
2022-11-08T12:57:31.286Z,16.63
2022-11-08T13:00:08.687Z,14.73
2022-11-08T13:02:38.607Z,16.60
2022-11-08T13:05:20.484Z,17.58
2022-11-08T13:07:57.344Z,21.65
2022-11-08T13:10:39.014Z,13.95
2022-11-08T13:13:26.854Z,14.68
2022-11-08T13:16:22.552Z,11.50
2022-11-08T13:18:59.618Z,13.88
2022-11-08T13:21:26.212Z,13.43
2022-11-08T13:23:58.923Z,14.93
2022-11-08T13:26:25.737Z,15.52
2022-11-08T13:28:52.887Z,14.18
2022-11-08T13:31:40.519Z,12.95
2022-11-08T13:34:25.089Z,18.90
2022-11-08T13:37:04.054Z,12.65
2022-11-08T13:39:55.263Z,13.15
2022-11-08T13:42:21.799Z,15.30
2022-11-08T13:44:54.198Z,13.23
2022-11-08T13:47:33.048Z,11.85
2022-11-08T13:50:30.502Z,11.27
2022-11-08T13:53:23.227Z,12.13
2022-11-08T13:55:57.981Z,11.68
2022-11-08T13:58:43.873Z,11.90
2022-11-08T14:01:38.410Z,12.18
2022-11-08T14:04:22.713Z,12.70
2022-11-08T14:07:08.175Z,12.05
2022-11-08T14:09:53.566Z,12.05
2022-11-08T14:12:31.063Z,10.93
2022-11-08T14:15:10.391Z,11.65
2022-11-08T14:17:44.786Z,11.63
2022-11-08T14:22:54.721Z,11.32
2022-11-08T14:25:30.900Z,11.73
2022-11-08T14:27:57.791Z,11.57
2022-11-08T14:30:24.529Z,11.23
2022-11-08T14:33:23.375Z,10.55
2022-11-08T14:36:03.363Z,11.43
2022-11-08T14:38:31.379Z,13.00
2022-11-08T14:40:59.965Z,11.98
2022-11-08T14:43:26.583Z,37.60
2022-11-08T14:45:53.692Z,23.02
2022-11-08T14:48:26.919Z,15.55
2022-11-08T14:51:05.400Z,15.95
2022-11-08T14:53:33.465Z,16.65
2022-11-08T14:56:16.320Z,13.43
2022-11-08T14:58:43.349Z,13.85
2022-11-08T15:01:10.301Z,13.98
2022-11-08T15:03:37.073Z,14.13
2022-11-08T15:06:13.642Z,13.77
2022-11-08T15:08:51.969Z,14.02
2022-11-08T15:11:31.986Z,14.45
2022-11-08T15:13:59.778Z,13.95
2022-11-08T15:16:26.419Z,13.02
2022-11-08T15:18:53.245Z,15.25
2022-11-08T15:21:27.682Z,15.50
2022-11-08T15:24:09.006Z,13.52
2022-11-08T15:26:35.682Z,12.23
2022-11-08T15:29:19.800Z,12.90
2022-11-08T15:31:57.053Z,12.43
2022-11-08T15:34:37.699Z,10.75
2022-11-08T15:37:36.615Z,11.48
2022-11-08T15:40:05.745Z,11.18
2022-11-08T15:42:33.451Z,10.73
2022-11-08T15:45:05.063Z,11.93
2022-11-08T15:47:43.729Z,11.07
2022-11-08T15:50:16.431Z,11.73
2022-11-08T15:52:43.655Z,12.10
2022-11-08T15:55:17.347Z,14.95
2022-11-08T15:57:44.885Z,21.42
2022-11-08T16:00:16.649Z,16.02
2022-11-08T16:02:43.999Z,19.58
2022-11-08T16:05:22.732Z,19.65
2022-11-08T16:07:49.591Z,20.40
2022-11-08T16:10:18.129Z,21.25
2022-11-08T16:12:46.047Z,32.97
2022-11-08T16:15:14.509Z,30.05
2022-11-08T16:17:41.333Z,32.42
2022-11-08T16:20:28.373Z,31.67
2022-11-08T16:22:58.700Z,26.33
2022-11-08T16:25:26.343Z,32.38
2022-11-08T16:28:03.614Z,31.63
2022-11-08T16:30:32.689Z,23.45
2022-11-08T16:32:59.742Z,25.67
2022-11-08T16:35:26.785Z,30.38
2022-11-08T16:37:53.714Z,29.98
2022-11-08T16:40:22.371Z,29.30
2022-11-08T16:42:50.002Z,32.22
2022-11-08T16:45:16.959Z,28.10
2022-11-08T16:47:46.022Z,26.67
2022-11-08T16:50:21.088Z,34.47
2022-11-08T16:52:47.746Z,25.63
2022-11-08T16:55:17.774Z,32.60
2022-11-08T16:57:44.915Z,39.72
2022-11-08T17:00:13.505Z,31.08
2022-11-08T17:02:48.148Z,33.45
2022-11-08T17:05:16.628Z,36.95
2022-11-08T17:07:43.318Z,34.88
2022-11-08T17:10:13.923Z,39.72
2022-11-08T17:12:42.234Z,35.00
2022-11-08T17:15:19.426Z,29.20
2022-11-08T17:17:46.350Z,27.55
2022-11-08T17:20:13.927Z,25.60
2022-11-08T17:22:41.514Z,27.08
2022-11-08T17:25:09.249Z,27.25
2022-11-08T17:27:35.904Z,30.10
2022-11-08T17:30:02.828Z,30.23
2022-11-08T17:32:29.397Z,30.55
2022-11-08T17:34:56.058Z,27.05
2022-11-08T17:37:23.439Z,23.42
2022-11-08T17:39:50.208Z,19.30
2022-11-08T17:42:17.784Z,18.85
2022-11-08T17:44:44.464Z,19.55
2022-11-08T17:47:11.062Z,24.23
2022-11-08T17:49:42.720Z,23.45
2022-11-08T17:52:10.820Z,21.45
2022-11-08T17:54:37.522Z,20.02
2022-11-08T17:57:04.201Z,22.08
2022-11-08T17:59:30.775Z,21.13
2022-11-08T18:01:57.494Z,21.17
2022-11-08T18:04:24.125Z,21.60
2022-11-08T18:06:50.876Z,19.92
2022-11-08T18:09:17.727Z,19.90
2022-11-08T18:11:47.769Z,22.33
2022-11-08T18:14:15.547Z,20.75
2022-11-08T18:16:42.760Z,27.35
2022-11-08T18:19:09.759Z,29.13
2022-11-08T18:21:36.407Z,24.48
2022-11-08T18:24:03.986Z,28.48
2022-11-08T18:26:30.574Z,24.70
2022-11-08T18:28:57.214Z,33.83
2022-11-08T18:31:23.826Z,29.02
2022-11-08T18:33:50.543Z,30.73
2022-11-08T18:36:18.930Z,29.23
2022-11-08T18:38:46.106Z,24.95
2022-11-08T18:41:25.123Z,26.25
2022-11-08T18:43:52.314Z,24.13
2022-11-08T18:46:20.811Z,23.83
2022-11-08T18:48:47.810Z,24.13
2022-11-08T18:51:15.446Z,24.73
2022-11-08T18:53:42.220Z,25.73
2022-11-08T18:56:08.990Z,28.70
2022-11-08T18:58:35.856Z,35.80
2022-11-08T19:01:02.651Z,34.08
2022-11-08T19:03:29.279Z,28.13
2022-11-08T19:05:55.969Z,22.30
2022-11-08T19:08:27.140Z,22.38
2022-11-08T19:10:55.620Z,20.25
2022-11-08T19:13:23.297Z,24.05
2022-11-08T19:16:04.340Z,19.63
2022-11-08T19:18:31.376Z,21.05
2022-11-08T19:21:08.156Z,22.27
2022-11-08T19:23:35.152Z,23.92
2022-11-08T19:26:03.865Z,24.83
2022-11-08T19:28:34.938Z,26.77
2022-11-08T19:31:01.754Z,23.20
2022-11-08T19:33:29.337Z,22.13
2022-11-08T19:35:59.702Z,21.25
2022-11-08T19:38:26.250Z,23.33
2022-11-08T19:40:52.887Z,20.88
2022-11-08T19:43:20.045Z,18.58
2022-11-08T19:45:52.505Z,19.15
2022-11-08T19:48:19.372Z,27.88
2022-11-08T19:50:46.829Z,26.83
2022-11-08T19:53:13.541Z,27.02
2022-11-08T19:55:40.266Z,27.52
2022-11-08T19:58:06.861Z,24.98
2022-11-08T20:00:33.581Z,23.17
2022-11-08T20:03:00.275Z,22.88
2022-11-08T20:05:28.266Z,21.60
2022-11-08T20:07:54.862Z,16.60
2022-11-08T20:10:21.434Z,18.15
2022-11-08T20:12:48.129Z,16.23
2022-11-08T20:15:14.772Z,16.58
2022-11-08T20:17:42.632Z,15.50
2022-11-08T20:20:09.609Z,17.98
2022-11-08T20:22:36.213Z,17.33
2022-11-08T20:25:02.890Z,17.30
2022-11-08T20:27:29.495Z,16.23
2022-11-08T20:29:56.158Z,16.65
2022-11-08T20:32:22.730Z,17.33
2022-11-08T20:34:50.714Z,17.25
2022-11-08T20:37:17.761Z,16.85
2022-11-08T20:39:44.569Z,16.73
2022-11-08T20:42:11.156Z,29.75
2022-11-08T20:44:37.842Z,25.60
2022-11-08T20:47:06.722Z,20.38
2022-11-08T20:49:33.671Z,30.45
2022-11-08T20:52:00.326Z,23.83
2022-11-08T20:54:26.893Z,23.63
2022-11-08T20:56:53.549Z,22.25
2022-11-08T20:59:20.182Z,20.77
2022-11-08T21:01:46.923Z,20.10
2022-11-08T21:04:13.571Z,20.23
2022-11-08T21:06:40.282Z,26.33
2022-11-08T21:09:32.549Z,26.33
2022-11-08T21:11:54.043Z,25.85
2022-11-08T21:14:21.148Z,22.77
2022-11-08T21:17:19.718Z,21.17
2022-11-08T21:19:34.445Z,19.65
2022-11-08T21:22:16.428Z,19.27
2022-11-08T21:24:43.577Z,18.77
2022-11-08T21:27:10.454Z,18.20
2022-11-08T21:29:37.141Z,16.52
2022-11-08T21:32:04.138Z,16.77
2022-11-08T21:34:32.639Z,14.98
2022-11-08T21:36:59.494Z,15.90
2022-11-08T21:39:26.233Z,17.48
2022-11-08T21:41:52.932Z,15.18
2022-11-08T21:44:20.419Z,14.77
2022-11-08T21:46:47.055Z,15.73
2022-11-08T21:49:13.856Z,14.43
2022-11-08T21:51:40.498Z,12.30
2022-11-08T21:54:07.109Z,13.00
2022-11-08T21:56:34.279Z,12.57
2022-11-08T21:59:01.227Z,13.95
2022-11-08T22:01:30.591Z,15.40
2022-11-08T22:03:58.805Z,14.90
2022-11-08T22:06:25.618Z,14.73
2022-11-08T22:08:52.289Z,13.73
2022-11-08T22:11:18.985Z,12.57
2022-11-08T22:13:45.688Z,14.30
2022-11-08T22:16:12.261Z,14.85
2022-11-08T22:21:37.886Z,14.88
2022-11-08T22:24:11.869Z,14.75
2022-11-08T22:26:39.025Z,15.68
2022-11-08T22:29:06.069Z,15.35
2022-11-08T22:31:32.950Z,14.98
2022-11-08T22:33:59.715Z,15.32
2022-11-08T22:36:26.307Z,13.88
2022-11-08T22:38:53.070Z,15.32
2022-11-08T22:41:20.420Z,14.20
2022-11-08T22:43:47.294Z,14.32
2022-11-08T22:46:14.000Z,15.32
2022-11-08T22:48:40.698Z,13.75
2022-11-08T22:51:07.591Z,15.57
2022-11-08T22:53:34.244Z,16.05
2022-11-08T22:56:01.048Z,16.50
2022-11-08T22:58:28.658Z,16.70
2022-11-08T23:01:13.982Z,17.15
2022-11-08T23:03:40.689Z,15.63
2022-11-08T23:06:07.270Z,16.10
2022-11-08T23:08:33.954Z,15.00
2022-11-08T23:11:18.872Z,16.13
2022-11-08T23:14:04.206Z,15.80
2022-11-08T23:16:40.165Z,16.00
2022-11-08T23:19:53.542Z,16.05
2022-11-08T23:22:39.030Z,16.65
2022-11-08T23:25:06.242Z,16.70
2022-11-08T23:27:51.410Z,17.23
2022-11-08T23:30:36.480Z,15.75
2022-11-08T23:33:03.843Z,14.52
2022-11-08T23:35:30.467Z,15.38
2022-11-08T23:37:57.133Z,15.30
2022-11-08T23:40:42.399Z,15.75
2022-11-08T23:43:35.909Z,15.32
2022-11-08T23:46:10.366Z,14.82
2022-11-08T23:48:37.413Z,17.77
2022-11-08T23:51:04.351Z,14.88
2022-11-08T23:53:31.104Z,14.88
2022-11-08T23:55:57.836Z,14.18
2022-11-08T23:58:24.801Z,14.63
